sensor_id;sensor_type;location;lat;lon;timestamp;P1;durP1;ratioP1;P2;durP2;ratioP2
40072;SDS011;25774;52.256;9.356;2022-11-20T00:00:53;19.37;;;9.23;;
40072;SDS011;25774;52.256;9.356;2022-11-20T00:03:19;19.20;;;9.57;;
40072;SDS011;25774;52.256;9.356;2022-11-20T00:05:45;19.90;;;10.03;;
40072;SDS011;25774;52.256;9.356;2022-11-20T00:10:37;22.63;;;9.05;;
40072;SDS011;25774;52.256;9.356;2022-11-20T00:13:03;21.05;;;8.95;;
40072;SDS011;25774;52.256;9.356;2022-11-20T00:15:29;21.42;;;10.18;;
40072;SDS011;25774;52.256;9.356;2022-11-20T00:17:54;22.43;;;10.07;;
40072;SDS011;25774;52.256;9.356;2022-11-20T00:20:19;19.97;;;9.07;;
40072;SDS011;25774;52.256;9.356;2022-11-20T00:22:46;21.37;;;8.50;;
40072;SDS011;25774;52.256;9.356;2022-11-20T00:27:36;18.75;;;7.82;;
40072;SDS011;25774;52.256;9.356;2022-11-20T00:30:02;18.52;;;8.43;;
40072;SDS011;25774;52.256;9.356;2022-11-20T00:34:54;16.40;;;7.90;;
40072;SDS011;25774;52.256;9.356;2022-11-20T00:37:19;16.97;;;7.50;;
40072;SDS011;25774;52.256;9.356;2022-11-20T00:39:44;19.17;;;8.30;;
40072;SDS011;25774;52.256;9.356;2022-11-20T00:42:10;16.23;;;7.40;;
40072;SDS011;25774;52.256;9.356;2022-11-20T00:44:35;18.20;;;8.00;;
40072;SDS011;25774;52.256;9.356;2022-11-20T00:47:00;18.60;;;9.03;;
40072;SDS011;25774;52.256;9.356;2022-11-20T00:49:26;17.13;;;8.27;;
40072;SDS011;25774;52.256;9.356;2022-11-20T00:51:51;19.47;;;6.77;;
40072;SDS011;25774;52.256;9.356;2022-11-20T00:54:16;18.13;;;7.27;;
40072;SDS011;25774;52.256;9.356;2022-11-20T00:56:43;14.97;;;7.10;;
40072;SDS011;25774;52.256;9.356;2022-11-20T01:01:33;16.20;;;7.03;;
40072;SDS011;25774;52.256;9.356;2022-11-20T01:03:59;17.90;;;8.47;;
40072;SDS011;25774;52.256;9.356;2022-11-20T01:06:26;22.50;;;9.43;;
40072;SDS011;25774;52.256;9.356;2022-11-20T01:08:54;20.75;;;8.77;;
40072;SDS011;25774;52.256;9.356;2022-11-20T01:11:25;19.55;;;9.32;;
40072;SDS011;25774;52.256;9.356;2022-11-20T01:13:52;19.85;;;10.90;;
40072;SDS011;25774;52.256;9.356;2022-11-20T01:16:21;21.55;;;10.55;;
40072;SDS011;25774;52.256;9.356;2022-11-20T01:18:47;22.20;;;9.25;;
40072;SDS011;25774;52.256;9.356;2022-11-20T01:21:20;20.38;;;9.13;;
40072;SDS011;25774;52.256;9.356;2022-11-20T01:23:50;18.48;;;9.25;;
40072;SDS011;25774;52.256;9.356;2022-11-20T01:28:43;17.55;;;7.82;;
40072;SDS011;25774;52.256;9.356;2022-11-20T01:33:42;22.02;;;9.95;;
40072;SDS011;25774;52.256;9.356;2022-11-20T01:36:09;17.75;;;9.32;;
40072;SDS011;25774;52.256;9.356;2022-11-20T01:38:41;17.15;;;8.90;;
40072;SDS011;25774;52.256;9.356;2022-11-20T01:41:08;17.80;;;8.63;;
40072;SDS011;25774;52.256;9.356;2022-11-20T01:43:35;20.60;;;8.80;;
40072;SDS011;25774;52.256;9.356;2022-11-20T01:46:14;19.65;;;9.02;;
40072;SDS011;25774;52.256;9.356;2022-11-20T01:51:23;19.20;;;8.82;;
40072;SDS011;25774;52.256;9.356;2022-11-20T01:53:53;22.00;;;9.88;;
40072;SDS011;25774;52.256;9.356;2022-11-20T01:56:21;18.70;;;9.85;;
40072;SDS011;25774;52.256;9.356;2022-11-20T01:58:48;20.75;;;9.10;;
40072;SDS011;25774;52.256;9.356;2022-11-20T02:01:18;20.92;;;9.43;;
40072;SDS011;25774;52.256;9.356;2022-11-20T02:03:43;20.60;;;8.75;;
40072;SDS011;25774;52.256;9.356;2022-11-20T02:09:06;21.13;;;8.95;;
40072;SDS011;25774;52.256;9.356;2022-11-20T02:11:31;20.08;;;8.98;;
40072;SDS011;25774;52.256;9.356;2022-11-20T02:13:58;15.93;;;8.37;;
40072;SDS011;25774;52.256;9.356;2022-11-20T02:18:55;18.52;;;8.70;;
40072;SDS011;25774;52.256;9.356;2022-11-20T02:24:06;16.67;;;8.18;;
40072;SDS011;25774;52.256;9.356;2022-11-20T02:29:17;17.63;;;8.70;;
40072;SDS011;25774;52.256;9.356;2022-11-20T02:31:48;16.40;;;8.02;;
40072;SDS011;25774;52.256;9.356;2022-11-20T02:34:13;18.48;;;8.50;;
40072;SDS011;25774;52.256;9.356;2022-11-20T02:36:39;18.63;;;9.30;;
40072;SDS011;25774;52.256;9.356;2022-11-20T02:39:08;21.70;;;9.98;;
40072;SDS011;25774;52.256;9.356;2022-11-20T02:41:37;16.38;;;7.80;;
40072;SDS011;25774;52.256;9.356;2022-11-20T02:44:03;20.85;;;8.32;;
40072;SDS011;25774;52.256;9.356;2022-11-20T02:46:30;19.15;;;8.40;;
40072;SDS011;25774;52.256;9.356;2022-11-20T02:48:56;20.67;;;9.05;;
40072;SDS011;25774;52.256;9.356;2022-11-20T02:51:24;20.93;;;9.20;;
40072;SDS011;25774;52.256;9.356;2022-11-20T02:53:49;18.15;;;8.27;;
40072;SDS011;25774;52.256;9.356;2022-11-20T02:56:15;19.65;;;9.23;;
40072;SDS011;25774;52.256;9.356;2022-11-20T02:58:41;16.40;;;8.20;;
40072;SDS011;25774;52.256;9.356;2022-11-20T03:01:07;16.43;;;7.83;;
40072;SDS011;25774;52.256;9.356;2022-11-20T03:06:01;17.30;;;7.97;;
40072;SDS011;25774;52.256;9.356;2022-11-20T03:08:26;18.80;;;8.80;;
40072;SDS011;25774;52.256;9.356;2022-11-20T03:10:54;17.33;;;8.52;;
40072;SDS011;25774;52.256;9.356;2022-11-20T03:13:20;20.25;;;9.88;;
40072;SDS011;25774;52.256;9.356;2022-11-20T03:15:45;14.85;;;7.25;;
40072;SDS011;25774;52.256;9.356;2022-11-20T03:18:11;17.43;;;8.40;;
40072;SDS011;25774;52.256;9.356;2022-11-20T03:20:38;16.98;;;8.10;;
40072;SDS011;25774;52.256;9.356;2022-11-20T03:23:05;17.35;;;8.13;;
40072;SDS011;25774;52.256;9.356;2022-11-20T03:27:56;18.60;;;8.00;;
40072;SDS011;25774;52.256;9.356;2022-11-20T03:30:23;19.73;;;9.23;;
40072;SDS011;25774;52.256;9.356;2022-11-20T03:35:13;21.83;;;7.68;;
40072;SDS011;25774;52.256;9.356;2022-11-20T03:37:38;20.17;;;8.87;;
40072;SDS011;25774;52.256;9.356;2022-11-20T03:40:04;18.80;;;9.13;;
40072;SDS011;25774;52.256;9.356;2022-11-20T03:42:30;20.85;;;9.48;;
40072;SDS011;25774;52.256;9.356;2022-11-20T03:45:10;19.55;;;8.55;;
40072;SDS011;25774;52.256;9.356;2022-11-20T03:47:37;16.48;;;8.57;;
40072;SDS011;25774;52.256;9.356;2022-11-20T03:50:03;24.03;;;10.90;;
40072;SDS011;25774;52.256;9.356;2022-11-20T03:52:28;17.67;;;7.68;;
40072;SDS011;25774;52.256;9.356;2022-11-20T03:54:54;21.20;;;10.13;;
40072;SDS011;25774;52.256;9.356;2022-11-20T03:57:19;16.13;;;7.53;;
40072;SDS011;25774;52.256;9.356;2022-11-20T03:59:44;20.00;;;9.43;;
40072;SDS011;25774;52.256;9.356;2022-11-20T04:02:10;16.97;;;8.57;;
40072;SDS011;25774;52.256;9.356;2022-11-20T04:04:35;17.67;;;8.43;;
40072;SDS011;25774;52.256;9.356;2022-11-20T04:07:00;18.63;;;7.97;;
40072;SDS011;25774;52.256;9.356;2022-11-20T04:09:25;22.20;;;10.13;;
40072;SDS011;25774;52.256;9.356;2022-11-20T04:11:51;23.07;;;10.60;;
40072;SDS011;25774;52.256;9.356;2022-11-20T04:14:16;19.20;;;8.67;;
40072;SDS011;25774;52.256;9.356;2022-11-20T04:16:41;21.60;;;10.27;;
40072;SDS011;25774;52.256;9.356;2022-11-20T04:19:11;21.45;;;9.63;;
40072;SDS011;25774;52.256;9.356;2022-11-20T04:21:41;17.75;;;8.40;;
40072;SDS011;25774;52.256;9.356;2022-11-20T04:24:08;19.38;;;9.88;;
40072;SDS011;25774;52.256;9.356;2022-11-20T04:26:35;19.63;;;8.60;;
40072;SDS011;25774;52.256;9.356;2022-11-20T04:29:01;17.73;;;8.27;;
40072;SDS011;25774;52.256;9.356;2022-11-20T04:31:31;18.85;;;7.95;;
40072;SDS011;25774;52.256;9.356;2022-11-20T04:34:02;20.75;;;9.25;;
40072;SDS011;25774;52.256;9.356;2022-11-20T04:36:30;18.27;;;8.73;;
40072;SDS011;25774;52.256;9.356;2022-11-20T04:39:01;22.08;;;9.73;;
40072;SDS011;25774;52.256;9.356;2022-11-20T04:41:30;19.35;;;8.75;;
40072;SDS011;25774;52.256;9.356;2022-11-20T04:43:58;19.70;;;9.65;;
40072;SDS011;25774;52.256;9.356;2022-11-20T04:46:27;21.45;;;9.43;;
40072;SDS011;25774;52.256;9.356;2022-11-20T04:48:54;20.70;;;8.73;;
40072;SDS011;25774;52.256;9.356;2022-11-20T04:51:19;19.88;;;8.52;;
40072;SDS011;25774;52.256;9.356;2022-11-20T04:53:46;19.92;;;9.75;;
40072;SDS011;25774;52.256;9.356;2022-11-20T04:56:12;22.17;;;9.98;;
40072;SDS011;25774;52.256;9.356;2022-11-20T04:58:38;20.58;;;9.90;;
40072;SDS011;25774;52.256;9.356;2022-11-20T05:01:11;19.20;;;9.68;;
40072;SDS011;25774;52.256;9.356;2022-11-20T05:03:39;19.48;;;8.77;;
40072;SDS011;25774;52.256;9.356;2022-11-20T05:06:08;18.83;;;9.40;;
40072;SDS011;25774;52.256;9.356;2022-11-20T05:08:35;21.88;;;9.20;;
40072;SDS011;25774;52.256;9.356;2022-11-20T05:11:03;21.83;;;10.13;;
40072;SDS011;25774;52.256;9.356;2022-11-20T05:13:30;17.63;;;8.43;;
40072;SDS011;25774;52.256;9.356;2022-11-20T05:16:00;17.67;;;9.50;;
40072;SDS011;25774;52.256;9.356;2022-11-20T05:18:30;18.15;;;8.90;;
40072;SDS011;25774;52.256;9.356;2022-11-20T05:20:57;15.82;;;8.75;;
40072;SDS011;25774;52.256;9.356;2022-11-20T05:23:23;17.13;;;8.70;;
40072;SDS011;25774;52.256;9.356;2022-11-20T05:25:53;17.30;;;8.77;;
40072;SDS011;25774;52.256;9.356;2022-11-20T05:28:20;17.77;;;8.38;;
40072;SDS011;25774;52.256;9.356;2022-11-20T05:30:45;20.70;;;9.15;;
40072;SDS011;25774;52.256;9.356;2022-11-20T05:33:11;18.20;;;9.40;;
40072;SDS011;25774;52.256;9.356;2022-11-20T05:35:36;17.13;;;8.47;;
40072;SDS011;25774;52.256;9.356;2022-11-20T05:38:02;20.27;;;9.23;;
40072;SDS011;25774;52.256;9.356;2022-11-20T05:40:27;18.10;;;8.23;;
40072;SDS011;25774;52.256;9.356;2022-11-20T05:42:53;20.80;;;9.00;;
40072;SDS011;25774;52.256;9.356;2022-11-20T05:45:19;18.75;;;9.88;;
40072;SDS011;25774;52.256;9.356;2022-11-20T05:47:44;19.33;;;8.30;;
40072;SDS011;25774;52.256;9.356;2022-11-20T05:50:09;17.10;;;8.57;;
40072;SDS011;25774;52.256;9.356;2022-11-20T05:52:35;18.00;;;8.53;;
40072;SDS011;25774;52.256;9.356;2022-11-20T05:55:00;18.33;;;8.00;;
40072;SDS011;25774;52.256;9.356;2022-11-20T05:57:25;25.23;;;10.17;;
40072;SDS011;25774;52.256;9.356;2022-11-20T05:59:51;19.77;;;8.90;;
40072;SDS011;25774;52.256;9.356;2022-11-20T06:02:16;21.60;;;8.80;;
40072;SDS011;25774;52.256;9.356;2022-11-20T06:04:41;21.57;;;9.83;;
40072;SDS011;25774;52.256;9.356;2022-11-20T06:07:07;19.10;;;10.10;;
40072;SDS011;25774;52.256;9.356;2022-11-20T06:09:32;18.37;;;8.70;;
40072;SDS011;25774;52.256;9.356;2022-11-20T06:11:58;21.58;;;9.90;;
40072;SDS011;25774;52.256;9.356;2022-11-20T06:14:23;18.20;;;8.50;;
40072;SDS011;25774;52.256;9.356;2022-11-20T06:16:49;18.33;;;9.50;;
40072;SDS011;25774;52.256;9.356;2022-11-20T06:19:14;21.23;;;9.43;;
40072;SDS011;25774;52.256;9.356;2022-11-20T06:21:40;17.77;;;8.77;;
40072;SDS011;25774;52.256;9.356;2022-11-20T06:24:05;16.90;;;8.80;;
40072;SDS011;25774;52.256;9.356;2022-11-20T06:26:31;20.55;;;9.25;;
40072;SDS011;25774;52.256;9.356;2022-11-20T06:28:56;19.83;;;9.23;;
40072;SDS011;25774;52.256;9.356;2022-11-20T06:31:23;20.03;;;9.53;;
40072;SDS011;25774;52.256;9.356;2022-11-20T06:33:50;19.15;;;9.10;;
40072;SDS011;25774;52.256;9.356;2022-11-20T06:36:16;15.50;;;7.68;;
40072;SDS011;25774;52.256;9.356;2022-11-20T06:38:43;20.30;;;9.02;;
40072;SDS011;25774;52.256;9.356;2022-11-20T06:41:14;19.60;;;10.07;;
40072;SDS011;25774;52.256;9.356;2022-11-20T06:46:11;21.05;;;10.77;;
40072;SDS011;25774;52.256;9.356;2022-11-20T06:48:38;20.58;;;8.70;;
40072;SDS011;25774;52.256;9.356;2022-11-20T06:51:04;22.48;;;10.32;;
40072;SDS011;25774;52.256;9.356;2022-11-20T06:53:31;19.77;;;9.60;;
40072;SDS011;25774;52.256;9.356;2022-11-20T06:55:58;18.35;;;9.07;;
40072;SDS011;25774;52.256;9.356;2022-11-20T06:58:27;19.52;;;8.95;;
40072;SDS011;25774;52.256;9.356;2022-11-20T07:00:57;20.38;;;9.27;;
40072;SDS011;25774;52.256;9.356;2022-11-20T07:03:23;17.70;;;8.95;;
40072;SDS011;25774;52.256;9.356;2022-11-20T07:05:51;19.97;;;9.20;;
40072;SDS011;25774;52.256;9.356;2022-11-20T07:08:16;19.25;;;10.25;;
40072;SDS011;25774;52.256;9.356;2022-11-20T07:10:42;19.00;;;9.90;;
40072;SDS011;25774;52.256;9.356;2022-11-20T07:13:07;20.57;;;9.37;;
40072;SDS011;25774;52.256;9.356;2022-11-20T07:15:32;22.97;;;10.20;;
40072;SDS011;25774;52.256;9.356;2022-11-20T07:17:58;19.47;;;9.17;;
40072;SDS011;25774;52.256;9.356;2022-11-20T07:20:24;20.15;;;10.68;;
40072;SDS011;25774;52.256;9.356;2022-11-20T07:22:53;22.60;;;10.50;;
40072;SDS011;25774;52.256;9.356;2022-11-20T07:25:20;21.02;;;10.23;;
40072;SDS011;25774;52.256;9.356;2022-11-20T07:27:45;22.27;;;10.57;;
40072;SDS011;25774;52.256;9.356;2022-11-20T07:30:11;19.87;;;10.10;;
40072;SDS011;25774;52.256;9.356;2022-11-20T07:32:37;18.02;;;9.38;;
40072;SDS011;25774;52.256;9.356;2022-11-20T07:35:03;19.10;;;9.60;;
40072;SDS011;25774;52.256;9.356;2022-11-20T07:37:29;24.08;;;9.93;;
40072;SDS011;25774;52.256;9.356;2022-11-20T07:39:54;26.47;;;9.90;;
40072;SDS011;25774;52.256;9.356;2022-11-20T07:42:19;23.07;;;9.93;;
40072;SDS011;25774;52.256;9.356;2022-11-20T07:44:44;23.90;;;9.97;;
40072;SDS011;25774;52.256;9.356;2022-11-20T07:47:10;23.57;;;10.63;;
40072;SDS011;25774;52.256;9.356;2022-11-20T07:49:35;20.93;;;9.40;;
40072;SDS011;25774;52.256;9.356;2022-11-20T07:52:00;20.03;;;10.13;;
40072;SDS011;25774;52.256;9.356;2022-11-20T07:54:26;21.17;;;10.50;;
40072;SDS011;25774;52.256;9.356;2022-11-20T07:56:51;23.37;;;10.40;;
40072;SDS011;25774;52.256;9.356;2022-11-20T07:59:16;21.10;;;10.23;;
40072;SDS011;25774;52.256;9.356;2022-11-20T08:01:42;22.43;;;10.20;;
40072;SDS011;25774;52.256;9.356;2022-11-20T08:04:08;20.63;;;9.52;;
40072;SDS011;25774;52.256;9.356;2022-11-20T08:06:34;25.40;;;10.63;;
40072;SDS011;25774;52.256;9.356;2022-11-20T08:09:00;22.25;;;11.10;;
40072;SDS011;25774;52.256;9.356;2022-11-20T08:11:25;23.23;;;10.67;;
40072;SDS011;25774;52.256;9.356;2022-11-20T08:14:09;21.55;;;10.40;;
40072;SDS011;25774;52.256;9.356;2022-11-20T08:16:41;23.00;;;10.25;;
40072;SDS011;25774;52.256;9.356;2022-11-20T08:19:08;22.50;;;10.85;;
40072;SDS011;25774;52.256;9.356;2022-11-20T08:21:33;22.15;;;10.05;;
40072;SDS011;25774;52.256;9.356;2022-11-20T08:23:59;21.83;;;10.23;;
40072;SDS011;25774;52.256;9.356;2022-11-20T08:26:26;24.93;;;11.83;;
40072;SDS011;25774;52.256;9.356;2022-11-20T08:28:55;22.40;;;10.40;;
40072;SDS011;25774;52.256;9.356;2022-11-20T08:31:21;23.52;;;10.75;;
40072;SDS011;25774;52.256;9.356;2022-11-20T08:36:12;26.10;;;10.70;;
40072;SDS011;25774;52.256;9.356;2022-11-20T08:38:38;24.90;;;11.70;;
40072;SDS011;25774;52.256;9.356;2022-11-20T08:41:04;25.20;;;12.13;;
40072;SDS011;25774;52.256;9.356;2022-11-20T08:43:48;28.95;;;11.73;;
40072;SDS011;25774;52.256;9.356;2022-11-20T08:46:38;22.10;;;11.00;;
40072;SDS011;25774;52.256;9.356;2022-11-20T08:49:06;28.55;;;12.88;;
40072;SDS011;25774;52.256;9.356;2022-11-20T08:51:34;29.42;;;11.68;;
40072;SDS011;25774;52.256;9.356;2022-11-20T08:53:59;24.90;;;12.52;;
40072;SDS011;25774;52.256;9.356;2022-11-20T08:56:25;27.20;;;12.10;;
40072;SDS011;25774;52.256;9.356;2022-11-20T08:58:51;21.03;;;10.80;;
40072;SDS011;25774;52.256;9.356;2022-11-20T09:01:17;24.13;;;11.27;;
40072;SDS011;25774;52.256;9.356;2022-11-20T09:03:48;24.17;;;11.45;;
40072;SDS011;25774;52.256;9.356;2022-11-20T09:06:13;25.65;;;11.50;;
40072;SDS011;25774;52.256;9.356;2022-11-20T09:08:39;27.00;;;11.87;;
40072;SDS011;25774;52.256;9.356;2022-11-20T09:11:05;24.95;;;12.45;;
40072;SDS011;25774;52.256;9.356;2022-11-20T09:13:31;24.45;;;11.63;;
40072;SDS011;25774;52.256;9.356;2022-11-20T09:16:16;26.15;;;13.05;;
40072;SDS011;25774;52.256;9.356;2022-11-20T09:18:41;27.35;;;13.15;;
40072;SDS011;25774;52.256;9.356;2022-11-20T09:21:12;21.30;;;11.37;;
40072;SDS011;25774;52.256;9.356;2022-11-20T09:23:38;20.85;;;10.38;;
40072;SDS011;25774;52.256;9.356;2022-11-20T09:26:05;21.55;;;11.65;;
40072;SDS011;25774;52.256;9.356;2022-11-20T09:28:32;21.70;;;11.23;;
40072;SDS011;25774;52.256;9.356;2022-11-20T09:30:59;25.33;;;11.20;;
40072;SDS011;25774;52.256;9.356;2022-11-20T09:33:24;25.80;;;10.85;;
40072;SDS011;25774;52.256;9.356;2022-11-20T09:35:49;24.13;;;12.23;;
40072;SDS011;25774;52.256;9.356;2022-11-20T09:38:15;23.57;;;10.77;;
40072;SDS011;25774;52.256;9.356;2022-11-20T09:40:43;24.17;;;11.17;;
40072;SDS011;25774;52.256;9.356;2022-11-20T09:48:26;26.88;;;12.32;;
40072;SDS011;25774;52.256;9.356;2022-11-20T09:50:56;24.58;;;11.18;;
40072;SDS011;25774;52.256;9.356;2022-11-20T09:56:20;23.50;;;11.32;;
40072;SDS011;25774;52.256;9.356;2022-11-20T09:58:50;28.05;;;12.65;;
40072;SDS011;25774;52.256;9.356;2022-11-20T10:01:18;28.60;;;12.45;;
40072;SDS011;25774;52.256;9.356;2022-11-20T10:03:51;24.42;;;11.80;;
40072;SDS011;25774;52.256;9.356;2022-11-20T10:06:33;24.95;;;11.70;;
40072;SDS011;25774;52.256;9.356;2022-11-20T10:17:03;22.13;;;10.97;;
40072;SDS011;25774;52.256;9.356;2022-11-20T10:19:52;21.67;;;10.43;;
40072;SDS011;25774;52.256;9.356;2022-11-20T10:25:13;24.70;;;11.20;;
40072;SDS011;25774;52.256;9.356;2022-11-20T10:30:23;22.85;;;11.32;;
40072;SDS011;25774;52.256;9.356;2022-11-20T10:35:42;21.55;;;10.48;;
40072;SDS011;25774;52.256;9.356;2022-11-20T10:38:14;24.00;;;10.95;;
40072;SDS011;25774;52.256;9.356;2022-11-20T10:40:51;24.50;;;12.65;;
40072;SDS011;25774;52.256;9.356;2022-11-20T10:43:39;21.95;;;11.38;;
40072;SDS011;25774;52.256;9.356;2022-11-20T10:46:10;22.33;;;11.20;;
40072;SDS011;25774;52.256;9.356;2022-11-20T10:48:42;25.40;;;11.23;;
40072;SDS011;25774;52.256;9.356;2022-11-20T10:51:18;23.48;;;10.93;;
40072;SDS011;25774;52.256;9.356;2022-11-20T10:56:37;21.90;;;10.95;;
40072;SDS011;25774;52.256;9.356;2022-11-20T11:02:20;23.50;;;10.70;;
40072;SDS011;25774;52.256;9.356;2022-11-20T11:04:52;19.10;;;10.60;;
40072;SDS011;25774;52.256;9.356;2022-11-20T11:07:30;21.58;;;10.25;;
40072;SDS011;25774;52.256;9.356;2022-11-20T11:10:01;19.17;;;9.70;;
40072;SDS011;25774;52.256;9.356;2022-11-20T11:12:46;25.52;;;10.88;;
40072;SDS011;25774;52.256;9.356;2022-11-20T11:15:24;22.27;;;10.90;;
40072;SDS011;25774;52.256;9.356;2022-11-20T11:17:52;19.80;;;10.10;;
40072;SDS011;25774;52.256;9.356;2022-11-20T11:20:20;23.00;;;10.48;;
40072;SDS011;25774;52.256;9.356;2022-11-20T11:22:51;21.25;;;9.65;;
40072;SDS011;25774;52.256;9.356;2022-11-20T11:25:32;20.63;;;10.13;;
40072;SDS011;25774;52.256;9.356;2022-11-20T11:28:04;22.05;;;10.75;;
40072;SDS011;25774;52.256;9.356;2022-11-20T11:30:44;20.33;;;9.68;;
40072;SDS011;25774;52.256;9.356;2022-11-20T11:33:17;21.33;;;10.55;;
40072;SDS011;25774;52.256;9.356;2022-11-20T11:35:45;21.33;;;10.52;;
40072;SDS011;25774;52.256;9.356;2022-11-20T11:38:17;19.75;;;10.55;;
40072;SDS011;25774;52.256;9.356;2022-11-20T11:40:53;23.52;;;10.80;;
40072;SDS011;25774;52.256;9.356;2022-11-20T11:43:20;20.33;;;10.65;;
40072;SDS011;25774;52.256;9.356;2022-11-20T11:46:21;21.15;;;9.88;;
40072;SDS011;25774;52.256;9.356;2022-11-20T11:48:57;21.73;;;11.00;;
40072;SDS011;25774;52.256;9.356;2022-11-20T11:54:24;21.25;;;10.57;;
40072;SDS011;25774;52.256;9.356;2022-11-20T11:56:55;20.50;;;10.45;;
40072;SDS011;25774;52.256;9.356;2022-11-20T11:59:31;20.70;;;9.95;;
40072;SDS011;25774;52.256;9.356;2022-11-20T12:04:54;18.17;;;9.93;;
40072;SDS011;25774;52.256;9.356;2022-11-20T12:10:14;18.42;;;9.75;;
40072;SDS011;25774;52.256;9.356;2022-11-20T12:12:44;18.45;;;9.73;;
40072;SDS011;25774;52.256;9.356;2022-11-20T12:15:18;17.70;;;9.88;;
40072;SDS011;25774;52.256;9.356;2022-11-20T12:17:55;18.75;;;9.77;;
40072;SDS011;25774;52.256;9.356;2022-11-20T12:20:21;15.73;;;8.97;;
40072;SDS011;25774;52.256;9.356;2022-11-20T12:25:42;18.38;;;9.15;;
40072;SDS011;25774;52.256;9.356;2022-11-20T12:30:46;21.70;;;9.98;;
40072;SDS011;25774;52.256;9.356;2022-11-20T12:33:27;19.25;;;10.23;;
40072;SDS011;25774;52.256;9.356;2022-11-20T12:44:41;20.73;;;9.73;;
40072;SDS011;25774;52.256;9.356;2022-11-20T13:00:22;16.83;;;9.38;;
40072;SDS011;25774;52.256;9.356;2022-11-20T13:05:53;18.27;;;9.27;;
40072;SDS011;25774;52.256;9.356;2022-11-20T13:08:25;16.90;;;9.18;;
40072;SDS011;25774;52.256;9.356;2022-11-20T13:16:48;17.90;;;9.30;;
40072;SDS011;25774;52.256;9.356;2022-11-20T13:19:19;18.42;;;9.65;;
40072;SDS011;25774;52.256;9.356;2022-11-20T13:21:46;18.98;;;9.90;;
40072;SDS011;25774;52.256;9.356;2022-11-20T13:26:48;16.27;;;8.75;;
40072;SDS011;25774;52.256;9.356;2022-11-20T13:29:24;21.42;;;9.57;;
40072;SDS011;25774;52.256;9.356;2022-11-20T13:31:49;16.23;;;8.77;;
40072;SDS011;25774;52.256;9.356;2022-11-20T13:34:25;17.13;;;8.93;;
40072;SDS011;25774;52.256;9.356;2022-11-20T13:36:55;16.75;;;8.70;;
40072;SDS011;25774;52.256;9.356;2022-11-20T13:39:26;16.85;;;7.78;;
40072;SDS011;25774;52.256;9.356;2022-11-20T13:41:54;15.65;;;8.68;;
40072;SDS011;25774;52.256;9.356;2022-11-20T13:44:29;14.55;;;7.93;;
40072;SDS011;25774;52.256;9.356;2022-11-20T13:47:03;17.33;;;8.50;;
40072;SDS011;25774;52.256;9.356;2022-11-20T13:58:15;16.70;;;7.75;;
40072;SDS011;25774;52.256;9.356;2022-11-20T14:01:10;14.75;;;7.35;;
40072;SDS011;25774;52.256;9.356;2022-11-20T14:03:41;13.23;;;6.90;;
40072;SDS011;25774;52.256;9.356;2022-11-20T14:06:29;15.73;;;7.95;;
40072;SDS011;25774;52.256;9.356;2022-11-20T14:08:56;16.30;;;7.93;;
40072;SDS011;25774;52.256;9.356;2022-11-20T14:11:26;14.27;;;7.13;;
40072;SDS011;25774;52.256;9.356;2022-11-20T14:13:57;14.52;;;7.78;;
40072;SDS011;25774;52.256;9.356;2022-11-20T14:16:31;12.75;;;6.70;;
40072;SDS011;25774;52.256;9.356;2022-11-20T14:19:17;12.63;;;7.10;;
40072;SDS011;25774;52.256;9.356;2022-11-20T14:21:44;13.02;;;7.93;;
40072;SDS011;25774;52.256;9.356;2022-11-20T14:24:11;14.40;;;7.18;;
40072;SDS011;25774;52.256;9.356;2022-11-20T14:26:44;14.32;;;7.15;;
40072;SDS011;25774;52.256;9.356;2022-11-20T14:31:39;14.93;;;7.53;;
40072;SDS011;25774;52.256;9.356;2022-11-20T14:34:04;13.83;;;7.40;;
40072;SDS011;25774;52.256;9.356;2022-11-20T14:36:30;14.30;;;7.27;;
40072;SDS011;25774;52.256;9.356;2022-11-20T14:38:55;15.90;;;7.60;;
40072;SDS011;25774;52.256;9.356;2022-11-20T14:41:23;14.87;;;7.30;;
40072;SDS011;25774;52.256;9.356;2022-11-20T14:43:58;12.80;;;7.10;;
40072;SDS011;25774;52.256;9.356;2022-11-20T14:46:24;14.50;;;7.72;;
40072;SDS011;25774;52.256;9.356;2022-11-20T14:48:51;15.73;;;6.82;;
40072;SDS011;25774;52.256;9.356;2022-11-20T14:51:35;15.00;;;7.78;;
40072;SDS011;25774;52.256;9.356;2022-11-20T14:54:16;14.50;;;7.65;;
40072;SDS011;25774;52.256;9.356;2022-11-20T14:56:59;16.38;;;7.85;;
40072;SDS011;25774;52.256;9.356;2022-11-20T14:59:31;16.40;;;8.15;;
40072;SDS011;25774;52.256;9.356;2022-11-20T15:02:01;17.00;;;8.30;;
40072;SDS011;25774;52.256;9.356;2022-11-20T15:04:30;18.55;;;8.88;;
40072;SDS011;25774;52.256;9.356;2022-11-20T15:06:56;17.97;;;9.13;;
40072;SDS011;25774;52.256;9.356;2022-11-20T15:09:22;17.10;;;8.68;;
40072;SDS011;25774;52.256;9.356;2022-11-20T15:11:58;19.20;;;9.07;;
40072;SDS011;25774;52.256;9.356;2022-11-20T15:14:26;20.17;;;9.30;;
40072;SDS011;25774;52.256;9.356;2022-11-20T15:16:53;21.02;;;9.32;;
40072;SDS011;25774;52.256;9.356;2022-11-20T15:19:20;21.40;;;9.87;;
40072;SDS011;25774;52.256;9.356;2022-11-20T15:21:48;20.20;;;9.18;;
40072;SDS011;25774;52.256;9.356;2022-11-20T15:24:15;16.75;;;8.50;;
40072;SDS011;25774;52.256;9.356;2022-11-20T15:26:40;20.60;;;9.95;;
40072;SDS011;25774;52.256;9.356;2022-11-20T15:29:09;18.10;;;9.30;;
40072;SDS011;25774;52.256;9.356;2022-11-20T15:31:37;20.35;;;8.57;;
40072;SDS011;25774;52.256;9.356;2022-11-20T15:34:08;18.10;;;8.70;;
40072;SDS011;25774;52.256;9.356;2022-11-20T15:36:36;18.05;;;8.65;;
40072;SDS011;25774;52.256;9.356;2022-11-20T15:39:01;17.97;;;8.60;;
40072;SDS011;25774;52.256;9.356;2022-11-20T15:41:28;13.98;;;8.25;;
40072;SDS011;25774;52.256;9.356;2022-11-20T15:43:55;18.85;;;9.45;;
40072;SDS011;25774;52.256;9.356;2022-11-20T15:46:26;16.77;;;8.75;;
40072;SDS011;25774;52.256;9.356;2022-11-20T15:48:54;20.13;;;9.60;;
40072;SDS011;25774;52.256;9.356;2022-11-20T15:51:24;18.02;;;8.95;;
40072;SDS011;25774;52.256;9.356;2022-11-20T15:53:55;23.48;;;11.07;;
40072;SDS011;25774;52.256;9.356;2022-11-20T15:56:21;18.65;;;9.68;;
40072;SDS011;25774;52.256;9.356;2022-11-20T15:58:48;21.70;;;10.18;;
40072;SDS011;25774;52.256;9.356;2022-11-20T16:01:14;19.55;;;9.75;;
40072;SDS011;25774;52.256;9.356;2022-11-20T16:03:42;20.50;;;10.10;;
40072;SDS011;25774;52.256;9.356;2022-11-20T16:06:08;20.33;;;10.93;;
40072;SDS011;25774;52.256;9.356;2022-11-20T16:08:33;26.10;;;11.37;;
40072;SDS011;25774;52.256;9.356;2022-11-20T16:11:00;20.92;;;10.10;;
40072;SDS011;25774;52.256;9.356;2022-11-20T16:13:26;26.92;;;11.23;;
40072;SDS011;25774;52.256;9.356;2022-11-20T16:16:21;27.48;;;13.10;;
40072;SDS011;25774;52.256;9.356;2022-11-20T16:18:48;24.55;;;11.73;;
40072;SDS011;25774;52.256;9.356;2022-11-20T16:21:14;22.65;;;11.85;;
40072;SDS011;25774;52.256;9.356;2022-11-20T16:23:40;25.10;;;12.13;;
40072;SDS011;25774;52.256;9.356;2022-11-20T16:26:10;24.80;;;12.57;;
40072;SDS011;25774;52.256;9.356;2022-11-20T16:28:36;24.58;;;11.68;;
40072;SDS011;25774;52.256;9.356;2022-11-20T16:31:11;24.50;;;11.83;;
40072;SDS011;25774;52.256;9.356;2022-11-20T16:33:38;25.85;;;13.07;;
40072;SDS011;25774;52.256;9.356;2022-11-20T16:36:07;29.50;;;12.05;;
40072;SDS011;25774;52.256;9.356;2022-11-20T16:38:36;27.33;;;12.57;;
40072;SDS011;25774;52.256;9.356;2022-11-20T16:41:03;25.05;;;12.15;;
40072;SDS011;25774;52.256;9.356;2022-11-20T16:43:29;27.65;;;13.57;;
40072;SDS011;25774;52.256;9.356;2022-11-20T16:45:55;25.67;;;12.43;;
40072;SDS011;25774;52.256;9.356;2022-11-20T16:48:21;24.40;;;12.90;;